Paynesville, Missouri
Current Conditions -  °F | °C
As of 12:35 AM on Monday 24 Nov 2014 (Local Time) from KPPQ Reporting Station
Thunderstorm Thunderstorm  
Wind Chill:   Ceiling: 700
Heat Index:   Visibility: 4mi
Dew Point:   Wind: 16mph
Humidity: 95%   Direction: 300°WNW
Pressure: 29.22"   Gusts: 24mph
Location:  39.3277°N, 90.9481°W
Report Text: KPPQ 240635Z AUTO 30014G21KT 4SM TS BKN007 OVC010 08/07 A2922 RMK AO2 T00760068
Loading
Personal Weather Stations






























Interactive Weather Map New forecast layout! Learn more

10-Day Weather Forecast

Advertisements
Track Severe Weather on mobile